createdAt,value
2023-03-28T00:01:34.210Z,3.30
2023-03-28T00:04:03.165Z,3.30
2023-03-28T00:06:31.520Z,3.20
2023-03-28T00:08:59.087Z,3.40
2023-03-28T00:11:26.670Z,3.20
2023-03-28T00:14:03.520Z,3.30
2023-03-28T00:16:34.063Z,3.20
2023-03-28T00:19:05.682Z,3.40
2023-03-28T00:21:36.412Z,3.20
2023-03-28T00:24:06.868Z,3.20
2023-03-28T00:26:36.016Z,3.20
2023-03-28T00:29:05.808Z,3.20
2023-03-28T00:31:34.931Z,3.20
2023-03-28T00:34:02.960Z,3.20
2023-03-28T00:36:32.729Z,3.20
2023-03-28T00:39:02.058Z,3.20
2023-03-28T00:41:32.667Z,3.20
2023-03-28T00:44:41.764Z,3.20
2023-03-28T00:47:18.435Z,3.20
2023-03-28T00:49:52.917Z,3.70
2023-03-28T00:52:24.096Z,3.60
2023-03-28T00:54:53.023Z,3.20
2023-03-28T00:57:25.052Z,3.20
2023-03-28T00:59:55.797Z,3.10
2023-03-28T01:02:23.962Z,3.10
2023-03-28T01:05:03.845Z,3.10
2023-03-28T01:07:39.580Z,3.00
2023-03-28T01:10:08.093Z,3.00
2023-03-28T01:12:40.053Z,2.90
2023-03-28T01:15:09.044Z,2.90
2023-03-28T01:17:36.859Z,2.90
2023-03-28T01:20:35.916Z,2.90
2023-03-28T01:23:24.311Z,2.90
2023-03-28T01:26:06.922Z,2.90
2023-03-28T01:29:06.753Z,2.90
2023-03-28T01:32:05.329Z,2.80
2023-03-28T01:35:10.288Z,2.80
2023-03-28T01:37:37.830Z,2.70
2023-03-28T01:40:13.448Z,2.80
2023-03-28T01:43:02.591Z,2.80
2023-03-28T01:46:06.157Z,2.80
2023-03-28T01:48:41.023Z,2.90
2023-03-28T01:51:21.077Z,2.90
2023-03-28T01:53:59.583Z,2.90
2023-03-28T01:56:39.399Z,2.90
2023-03-28T01:59:25.219Z,2.90
2023-03-28T02:02:08.917Z,2.90
2023-03-28T02:04:38.563Z,2.90
2023-03-28T02:07:10.946Z,2.90
2023-03-28T02:09:41.324Z,2.80
2023-03-28T02:12:16.936Z,2.70
2023-03-28T02:14:46.672Z,2.70
2023-03-28T02:17:16.410Z,2.70
2023-03-28T02:19:50.629Z,2.60
2023-03-28T02:22:44.826Z,2.60
2023-03-28T02:25:12.760Z,2.60
2023-03-28T02:27:42.683Z,2.60
2023-03-28T02:30:10.733Z,2.60
2023-03-28T02:32:38.509Z,2.60
2023-03-28T02:35:07.127Z,2.60
2023-03-28T02:37:49.532Z,2.60
2023-03-28T02:40:37.297Z,2.50
2023-03-28T02:43:29.650Z,2.30
2023-03-28T02:46:18.242Z,2.20
2023-03-28T02:49:17.714Z,2.10
2023-03-28T02:52:10.876Z,2.00
2023-03-28T02:55:07.576Z,2.00
2023-03-28T02:57:38.817Z,2.00
2023-03-28T03:00:19.837Z,2.00
2023-03-28T03:02:51.447Z,2.00
2023-03-28T03:05:20.646Z,2.00
2023-03-28T03:07:49.829Z,2.10
2023-03-28T03:10:22.033Z,2.10
2023-03-28T03:12:49.710Z,2.00
2023-03-28T03:15:19.082Z,1.90
2023-03-28T03:17:47.405Z,1.90
2023-03-28T03:20:16.648Z,2.00
2023-03-28T03:22:44.225Z,2.00
2023-03-28T03:25:14.380Z,2.00
2023-03-28T03:27:45.072Z,2.00
2023-03-28T03:30:14.092Z,2.00
2023-03-28T03:32:44.034Z,1.90
2023-03-28T03:35:12.495Z,1.80
2023-03-28T03:37:40.254Z,1.90
2023-03-28T03:40:09.797Z,1.90
2023-03-28T03:42:37.568Z,1.90
2023-03-28T03:45:05.873Z,1.90
2023-03-28T03:47:33.577Z,1.90
2023-03-28T03:50:01.268Z,1.90
2023-03-28T03:52:28.975Z,1.90
2023-03-28T03:54:57.971Z,1.90
2023-03-28T03:57:25.655Z,1.90
2023-03-28T03:59:53.666Z,1.90
2023-03-28T04:02:22.968Z,1.90
2023-03-28T04:04:50.561Z,1.90
2023-03-28T04:07:18.142Z,1.90
2023-03-28T04:09:46.174Z,1.90
2023-03-28T04:12:14.748Z,1.80
2023-03-28T04:14:42.528Z,1.80
2023-03-28T04:17:10.174Z,1.80
2023-03-28T04:19:40.611Z,1.80
2023-03-28T04:22:08.237Z,1.80
2023-03-28T04:24:38.685Z,1.80
2023-03-28T04:27:09.343Z,1.80
2023-03-28T04:29:37.319Z,1.80
2023-03-28T04:32:06.596Z,1.80
2023-03-28T04:34:36.517Z,1.80
2023-03-28T04:37:06.051Z,1.80
2023-03-28T04:39:37.041Z,1.80
2023-03-28T04:42:08.529Z,1.70
2023-03-28T04:44:36.157Z,1.70
2023-03-28T04:47:03.784Z,1.60
2023-03-28T04:49:31.892Z,1.60
2023-03-28T04:51:59.427Z,1.50
2023-03-28T04:54:27.318Z,1.40
2023-03-28T04:56:54.912Z,1.40
2023-03-28T04:59:22.570Z,1.50
2023-03-28T05:01:52.783Z,1.50
2023-03-28T05:04:22.184Z,1.50
2023-03-28T05:06:52.827Z,1.40
2023-03-28T05:09:20.853Z,1.40
2023-03-28T05:11:48.892Z,1.40
2023-03-28T05:14:19.178Z,1.30
2023-03-28T05:16:46.980Z,1.30
2023-03-28T05:19:14.645Z,1.30
2023-03-28T05:21:42.237Z,1.30
2023-03-28T05:24:13.370Z,1.40
2023-03-28T05:26:43.968Z,1.40
2023-03-28T05:29:14.833Z,1.50
2023-03-28T05:31:46.750Z,1.50
2023-03-28T05:34:14.835Z,1.50
2023-03-28T05:36:42.879Z,1.40
2023-03-28T05:39:14.982Z,1.40
2023-03-28T05:41:49.085Z,1.50
2023-03-28T05:44:46.032Z,1.60
2023-03-28T05:47:13.849Z,1.50
2023-03-28T05:53:20.375Z,1.40
2023-03-28T05:56:10.673Z,1.50
2023-03-28T05:58:48.462Z,1.60
2023-03-28T06:01:27.767Z,1.50
2023-03-28T06:04:16.545Z,1.70
2023-03-28T06:06:55.618Z,1.90
2023-03-28T06:09:31.891Z,2.00
2023-03-28T06:12:13.760Z,2.20
2023-03-28T06:14:49.985Z,2.40
2023-03-28T06:17:23.583Z,2.30
2023-03-28T06:20:04.853Z,2.30
2023-03-28T06:22:39.115Z,2.10
2023-03-28T06:25:18.301Z,2.20
2023-03-28T06:27:53.188Z,2.20
2023-03-28T06:30:38.655Z,2.30
2023-03-28T06:33:28.248Z,2.40
2023-03-28T06:36:08.430Z,2.50
2023-03-28T06:38:42.543Z,2.50
2023-03-28T06:41:14.067Z,2.50
2023-03-28T06:43:50.208Z,2.50
2023-03-28T06:46:31.872Z,2.50
2023-03-28T06:49:21.114Z,2.50
2023-03-28T06:51:52.313Z,2.60
2023-03-28T06:54:24.301Z,2.60
2023-03-28T06:56:52.186Z,2.70
2023-03-28T06:59:19.992Z,2.70
2023-03-28T07:01:48.159Z,2.70
2023-03-28T07:04:22.552Z,2.80
2023-03-28T07:07:09.618Z,2.80
2023-03-28T07:09:43.239Z,2.90
2023-03-28T07:12:11.442Z,3.00
2023-03-28T07:14:40.530Z,3.10
2023-03-28T07:17:08.404Z,3.20
2023-03-28T07:19:46.137Z,3.20
2023-03-28T07:22:19.630Z,3.40
2023-03-28T07:24:58.077Z,3.50
2023-03-28T07:27:28.551Z,3.60
2023-03-28T07:29:59.690Z,3.70
2023-03-28T07:32:35.740Z,3.70
2023-03-28T07:35:08.289Z,3.80
2023-03-28T07:37:40.117Z,3.90
2023-03-28T07:40:17.238Z,4.00
2023-03-28T07:42:44.906Z,4.30
2023-03-28T07:45:15.928Z,4.30
2023-03-28T07:47:49.669Z,4.50
2023-03-28T07:50:21.885Z,4.60
2023-03-28T07:52:57.810Z,4.80
2023-03-28T07:55:39.414Z,4.90
2023-03-28T07:58:19.129Z,5.00
2023-03-28T08:00:49.847Z,5.20
2023-03-28T08:03:36.492Z,5.30
2023-03-28T08:06:20.049Z,5.30
2023-03-28T08:08:57.225Z,5.50
2023-03-28T08:11:40.556Z,5.80
2023-03-28T08:14:18.921Z,5.80
2023-03-28T08:16:58.249Z,5.90
2023-03-28T08:19:40.693Z,5.80
2023-03-28T08:22:20.596Z,5.80
2023-03-28T08:25:02.480Z,5.70
2023-03-28T08:27:49.416Z,5.70
2023-03-28T08:30:24.053Z,5.70
2023-03-28T08:35:47.200Z,5.80
2023-03-28T08:38:18.536Z,6.00
2023-03-28T08:41:13.111Z,6.30
2023-03-28T08:44:23.857Z,6.60
2023-03-28T08:47:03.008Z,6.80
2023-03-28T08:49:38.901Z,6.80
2023-03-28T08:52:07.284Z,6.90
2023-03-28T08:54:53.446Z,7.10
2023-03-28T08:57:26.705Z,7.10
2023-03-28T09:00:22.966Z,7.20
2023-03-28T09:02:51.983Z,7.10
2023-03-28T09:05:34.592Z,7.20
2023-03-28T09:08:29.213Z,7.40
2023-03-28T09:11:23.146Z,7.60
2023-03-28T09:14:13.485Z,7.50
2023-03-28T09:16:44.117Z,7.40
2023-03-28T09:19:40.513Z,7.60
2023-03-28T09:22:21.901Z,7.70
2023-03-28T09:25:14.658Z,7.70
2023-03-28T09:28:25.627Z,7.80
2023-03-28T09:31:01.847Z,8.10
2023-03-28T09:33:45.451Z,8.30
2023-03-28T09:36:31.592Z,8.50
2023-03-28T09:39:37.893Z,8.40
2023-03-28T09:42:25.501Z,8.60
2023-03-28T09:45:08.156Z,8.30
2023-03-28T09:47:36.343Z,8.20
2023-03-28T09:50:12.959Z,8.10
2023-03-28T09:52:41.948Z,8.10
2023-03-28T09:55:40.453Z,8.20
2023-03-28T09:58:11.501Z,8.20
2023-03-28T10:00:46.384Z,8.50
2023-03-28T10:03:32.887Z,8.50
2023-03-28T10:06:32.120Z,8.50
2023-03-28T10:09:25.788Z,8.40
2023-03-28T10:12:11.149Z,8.60
2023-03-28T10:14:49.547Z,8.80
2023-03-28T10:17:36.600Z,9.20
2023-03-28T10:20:26.332Z,9.30
2023-03-28T10:23:07.937Z,9.00
2023-03-28T10:25:48.709Z,9.20
2023-03-28T10:28:39.212Z,9.80
2023-03-28T10:31:10.274Z,10.30
2023-03-28T10:33:50.137Z,10.50
2023-03-28T10:36:43.469Z,10.60
2023-03-28T10:39:34.828Z,10.90
2023-03-28T10:42:14.768Z,11.30
2023-03-28T10:45:04.569Z,11.20
2023-03-28T10:47:35.495Z,11.00
2023-03-28T10:50:28.340Z,11.20
2023-03-28T10:53:21.453Z,11.10
2023-03-28T10:56:31.569Z,10.80
2023-03-28T10:59:26.725Z,10.60
2023-03-28T11:02:09.829Z,11.10
2023-03-28T11:04:37.616Z,11.30
2023-03-28T11:07:21.912Z,11.90
2023-03-28T11:10:35.750Z,12.70
2023-03-28T11:13:33.831Z,13.40
2023-03-28T11:16:35.409Z,14.30
2023-03-28T11:19:23.612Z,15.80
2023-03-28T11:22:27.418Z,16.60
2023-03-28T11:25:44.953Z,17.30
2023-03-28T11:28:40.412Z,16.90
2023-03-28T11:31:18.208Z,16.70
2023-03-28T11:34:08.989Z,16.00
2023-03-28T11:36:45.948Z,15.30
2023-03-28T11:39:16.634Z,16.00
2023-03-28T11:41:47.532Z,15.90
2023-03-28T11:44:29.707Z,15.60
2023-03-28T11:47:16.156Z,15.60
2023-03-28T11:49:53.645Z,16.00
2023-03-28T11:52:40.297Z,16.60
2023-03-28T11:55:24.145Z,17.20
2023-03-28T11:58:05.264Z,18.00
2023-03-28T12:00:44.841Z,17.90
2023-03-28T12:03:31.624Z,18.00
2023-03-28T12:06:16.913Z,17.30
2023-03-28T12:08:54.145Z,16.90
2023-03-28T12:11:29.912Z,16.60
2023-03-28T12:14:31.154Z,18.20
2023-03-28T12:17:02.362Z,19.30
2023-03-28T12:19:39.040Z,20.40
2023-03-28T12:22:21.413Z,20.60
2023-03-28T12:25:06.753Z,21.80
2023-03-28T12:28:10.280Z,22.20
2023-03-28T12:30:45.545Z,22.20
2023-03-28T12:33:45.721Z,22.30
2023-03-28T12:36:36.582Z,22.10
2023-03-28T12:39:21.286Z,21.30
2023-03-28T12:41:49.127Z,21.40
2023-03-28T12:44:25.704Z,22.60
2023-03-28T12:47:02.028Z,23.60
2023-03-28T12:49:54.165Z,23.00
2023-03-28T12:52:27.213Z,23.20
2023-03-28T12:55:01.440Z,23.90
2023-03-28T12:57:40.260Z,23.30
2023-03-28T13:00:29.741Z,23.10
2023-03-28T13:03:29.583Z,23.60
2023-03-28T13:06:21.693Z,24.20
2023-03-28T13:09:16.907Z,24.80
2023-03-28T13:12:09.325Z,26.20
2023-03-28T13:14:41.576Z,25.60
2023-03-28T13:17:25.252Z,22.20
2023-03-28T13:19:52.960Z,19.40
2023-03-28T13:22:47.200Z,18.70
2023-03-28T13:25:35.651Z,17.50
2023-03-28T13:28:12.459Z,16.40
2023-03-28T13:30:45.669Z,15.70
2023-03-28T13:33:29.742Z,15.30
2023-03-28T13:36:00.584Z,15.40
2023-03-28T13:38:28.291Z,15.30
2023-03-28T13:41:09.092Z,15.00
2023-03-28T13:43:47.448Z,14.90
2023-03-28T13:46:19.397Z,14.90
2023-03-28T13:49:26.010Z,14.50
2023-03-28T13:51:59.642Z,14.00
2023-03-28T13:54:30.196Z,14.10
2023-03-28T13:57:12.990Z,14.80
2023-03-28T13:59:56.453Z,16.40
2023-03-28T14:02:32.448Z,17.60
2023-03-28T14:05:21.893Z,19.80
2023-03-28T14:07:51.547Z,21.60
2023-03-28T14:10:28.866Z,22.50
2023-03-28T14:13:15.883Z,23.10
2023-03-28T14:15:45.639Z,24.00
2023-03-28T14:18:36.075Z,24.00
2023-03-28T14:21:06.741Z,23.50
2023-03-28T14:23:48.993Z,24.30
2023-03-28T14:26:23.608Z,24.00
2023-03-28T14:29:16.027Z,24.10
2023-03-28T14:31:48.828Z,24.10
2023-03-28T14:34:24.150Z,24.90
2023-03-28T14:36:59.515Z,25.50
2023-03-28T14:39:32.273Z,25.00
2023-03-28T14:44:58.047Z,22.40
2023-03-28T14:47:32.132Z,21.50
2023-03-28T14:50:04.089Z,22.10
2023-03-28T14:52:41.382Z,23.50
2023-03-28T14:55:18.737Z,24.30
2023-03-28T14:57:49.013Z,24.70
2023-03-28T15:00:36.184Z,24.10
2023-03-28T15:03:12.751Z,24.00
2023-03-28T15:05:45.617Z,23.50
2023-03-28T15:08:37.947Z,23.20
2023-03-28T15:11:12.973Z,22.50
2023-03-28T15:14:31.744Z,21.70
2023-03-28T15:17:01.249Z,21.80
2023-03-28T15:19:41.561Z,22.50
2023-03-28T15:22:13.713Z,22.90
2023-03-28T15:24:44.605Z,22.90
2023-03-28T15:27:33.703Z,23.40
2023-03-28T15:30:14.136Z,24.30
2023-03-28T15:32:41.983Z,26.50
2023-03-28T15:35:43.979Z,26.40
2023-03-28T15:38:22.457Z,27.40
2023-03-28T15:40:51.415Z,27.10
2023-03-28T15:43:28.188Z,25.30
2023-03-28T15:46:01.571Z,22.80
2023-03-28T15:48:34.846Z,20.90
2023-03-28T15:51:09.998Z,19.70
2023-03-28T15:53:41.155Z,19.10
2023-03-28T15:56:25.758Z,18.60
2023-03-28T15:58:57.714Z,18.20
2023-03-28T16:01:30.049Z,17.60
2023-03-28T16:04:22.017Z,16.90
2023-03-28T16:06:55.366Z,16.70
2023-03-28T16:09:25.018Z,16.10
2023-03-28T16:11:59.621Z,15.70
2023-03-28T16:14:27.626Z,15.30
2023-03-28T16:16:56.416Z,15.00
2023-03-28T16:19:28.534Z,14.60
2023-03-28T16:21:57.941Z,14.00
2023-03-28T16:24:27.521Z,14.00
2023-03-28T16:26:58.025Z,13.70
2023-03-28T16:29:25.676Z,13.80
2023-03-28T16:31:53.416Z,13.70
2023-03-28T16:34:21.067Z,13.50
2023-03-28T16:36:48.875Z,13.40
2023-03-28T16:39:16.547Z,13.10
2023-03-28T16:41:44.261Z,13.00
2023-03-28T16:44:11.891Z,12.90
2023-03-28T16:46:39.684Z,12.60
2023-03-28T16:49:07.332Z,12.40
2023-03-28T16:51:34.932Z,12.20
2023-03-28T16:54:02.502Z,12.00
2023-03-28T16:56:30.334Z,11.90
2023-03-28T16:59:00.842Z,11.80
2023-03-28T17:01:28.586Z,11.80
2023-03-28T17:03:57.933Z,11.70
2023-03-28T17:06:27.323Z,11.60
2023-03-28T17:08:55.577Z,11.50
2023-03-28T17:11:23.466Z,11.50
2023-03-28T17:13:53.199Z,11.60
2023-03-28T17:16:22.492Z,11.40
2023-03-28T17:18:50.413Z,11.30
2023-03-28T17:21:18.576Z,11.10
2023-03-28T17:23:48.359Z,11.10
2023-03-28T17:26:17.203Z,11.00
2023-03-28T17:28:45.032Z,11.00
2023-03-28T17:31:18.527Z,10.90
2023-03-28T17:33:47.589Z,10.80
2023-03-28T17:36:22.013Z,10.70
2023-03-28T17:38:51.919Z,10.60
2023-03-28T17:41:25.963Z,10.50
2023-03-28T17:43:55.022Z,10.60
2023-03-28T17:46:23.791Z,10.30
2023-03-28T17:48:51.451Z,10.20
2023-03-28T17:51:19.357Z,10.20
2023-03-28T17:53:47.602Z,10.20
2023-03-28T17:56:18.235Z,10.10
2023-03-28T17:58:46.504Z,10.10
2023-03-28T18:01:16.594Z,10.00
2023-03-28T18:03:46.075Z,10.00
2023-03-28T18:06:17.054Z,9.90
2023-03-28T18:08:44.888Z,9.90
2023-03-28T18:11:15.864Z,9.90
2023-03-28T18:13:44.165Z,9.80
2023-03-28T18:16:15.018Z,9.90
2023-03-28T18:18:42.731Z,9.90
2023-03-28T18:21:11.710Z,9.90
2023-03-28T18:23:40.062Z,10.00
2023-03-28T18:26:08.213Z,9.90
2023-03-28T18:28:36.806Z,10.00
2023-03-28T18:31:16.115Z,9.70
2023-03-28T18:33:44.455Z,9.70
2023-03-28T18:36:13.497Z,9.70
2023-03-28T18:38:43.606Z,9.60
2023-03-28T18:41:12.763Z,9.70
2023-03-28T18:43:42.150Z,9.70
2023-03-28T18:46:15.967Z,9.60
2023-03-28T18:48:45.361Z,9.60
2023-03-28T18:51:16.290Z,9.60
2023-03-28T18:53:44.035Z,9.60
2023-03-28T18:56:13.435Z,9.60
2023-03-28T18:58:41.351Z,9.70
2023-03-28T19:01:10.244Z,9.60
2023-03-28T19:03:40.500Z,9.60
2023-03-28T19:06:10.615Z,9.70
2023-03-28T19:08:38.795Z,9.70
2023-03-28T19:11:09.252Z,9.70
2023-03-28T19:13:37.014Z,9.70
2023-03-28T19:16:11.569Z,9.70
2023-03-28T19:18:40.797Z,9.70
2023-03-28T19:21:09.900Z,9.70
2023-03-28T19:23:37.937Z,9.60
2023-03-28T19:26:07.126Z,9.60
2023-03-28T19:28:35.446Z,9.50
2023-03-28T19:31:06.028Z,9.50
2023-03-28T19:33:37.781Z,9.50
2023-03-28T19:36:06.479Z,9.50
2023-03-28T19:38:36.190Z,9.50
2023-03-28T19:41:10.355Z,9.50
2023-03-28T19:43:38.914Z,9.50
2023-03-28T19:46:08.581Z,9.50
2023-03-28T19:48:37.659Z,9.30
2023-03-28T19:51:05.493Z,9.30
2023-03-28T19:53:33.364Z,9.30
2023-03-28T19:56:01.414Z,9.30
2023-03-28T19:58:29.405Z,9.30
2023-03-28T20:00:57.204Z,9.30
2023-03-28T20:03:25.600Z,9.30
2023-03-28T20:05:53.372Z,9.30
2023-03-28T20:08:21.541Z,9.10
2023-03-28T20:10:53.180Z,9.00
2023-03-28T20:13:21.029Z,8.80
2023-03-28T20:15:48.913Z,8.70
2023-03-28T20:18:21.172Z,8.80
2023-03-28T20:20:53.386Z,8.70
2023-03-28T20:23:23.674Z,8.80
2023-03-28T20:25:52.831Z,8.80
2023-03-28T20:28:24.473Z,8.80
2023-03-28T20:30:53.555Z,8.80
2023-03-28T20:33:21.968Z,8.80
2023-03-28T20:35:57.994Z,8.80
2023-03-28T20:38:28.224Z,8.80
2023-03-28T20:40:55.964Z,8.80
2023-03-28T20:43:29.306Z,8.70
2023-03-28T20:46:01.624Z,8.70
2023-03-28T20:48:36.864Z,8.70
2023-03-28T20:51:17.173Z,8.60
2023-03-28T20:53:48.459Z,8.50
2023-03-28T20:56:19.056Z,8.40
2023-03-28T20:58:47.362Z,8.50
2023-03-28T21:01:16.630Z,8.30
2023-03-28T21:03:51.740Z,8.30
2023-03-28T21:06:22.428Z,8.30
2023-03-28T21:08:52.121Z,8.20
2023-03-28T21:11:22.591Z,8.10
2023-03-28T21:13:50.732Z,8.20
2023-03-28T21:16:18.812Z,8.20
2023-03-28T21:18:49.599Z,8.30
2023-03-28T21:21:18.875Z,8.40
2023-03-28T21:23:47.039Z,8.30
2023-03-28T21:26:18.085Z,8.20
2023-03-28T21:28:46.489Z,8.20
2023-03-28T21:31:20.846Z,8.20
2023-03-28T21:33:49.185Z,8.30
2023-03-28T21:36:18.578Z,8.30
2023-03-28T21:38:46.925Z,8.20
2023-03-28T21:41:15.126Z,8.30
2023-03-28T21:43:43.742Z,8.30
2023-03-28T21:46:12.747Z,8.30
2023-03-28T21:48:41.964Z,8.30
2023-03-28T21:51:09.689Z,8.10
2023-03-28T21:53:38.532Z,8.10
2023-03-28T21:56:06.904Z,8.10
2023-03-28T21:58:35.074Z,8.10
2023-03-28T22:01:04.047Z,8.10
2023-03-28T22:03:35.179Z,8.10
2023-03-28T22:06:03.129Z,8.10
2023-03-28T22:08:30.952Z,8.10
2023-03-28T22:11:02.372Z,8.00
2023-03-28T22:13:30.693Z,8.00
2023-03-28T22:15:59.674Z,7.90
2023-03-28T22:18:28.065Z,8.10
2023-03-28T22:20:56.433Z,8.00
2023-03-28T22:23:27.146Z,8.00
2023-03-28T22:25:58.553Z,7.90
2023-03-28T22:28:26.288Z,7.90
2023-03-28T22:30:55.113Z,7.90
2023-03-28T22:33:25.456Z,7.90
2023-03-28T22:35:53.495Z,7.90
2023-03-28T22:38:21.943Z,7.80
2023-03-28T22:40:49.782Z,7.90
2023-03-28T22:43:17.482Z,7.90
2023-03-28T22:45:45.065Z,7.90
2023-03-28T22:48:15.674Z,7.90
2023-03-28T22:50:47.291Z,7.90
2023-03-28T22:53:15.518Z,7.90
2023-03-28T22:55:44.270Z,7.90
2023-03-28T22:58:12.521Z,7.80
2023-03-28T23:00:40.231Z,7.80
2023-03-28T23:03:12.195Z,7.70
2023-03-28T23:05:42.823Z,7.70
2023-03-28T23:08:11.141Z,7.80
2023-03-28T23:10:38.844Z,7.70
2023-03-28T23:13:08.452Z,7.70
2023-03-28T23:15:36.071Z,7.80
2023-03-28T23:18:03.902Z,7.80
2023-03-28T23:20:31.576Z,7.80
2023-03-28T23:22:59.284Z,7.80
2023-03-28T23:25:28.518Z,7.80
2023-03-28T23:27:56.187Z,7.90
2023-03-28T23:30:23.996Z,7.80
2023-03-28T23:32:51.994Z,7.80
2023-03-28T23:35:22.684Z,7.80
2023-03-28T23:37:53.106Z,7.80
2023-03-28T23:40:21.212Z,7.80
2023-03-28T23:42:48.889Z,7.70
2023-03-28T23:45:19.784Z,7.70
2023-03-28T23:47:47.509Z,7.70
2023-03-28T23:50:15.394Z,7.80
2023-03-28T23:52:43.171Z,7.70
2023-03-28T23:55:10.933Z,7.70
2023-03-28T23:57:38.602Z,7.70
